Relevés horaires Eggishorn (Suisse)


Relevés horaires à Eggishorn - Mardi 08 Oct. 2019
Heure UTC1 Température [°C] Vent [km/h] Hum. [%] Pres.4 [hPa] Visi. [Km] Nébu. [octa] Préc.5 [mm] Cond.
2m. Res. Ros. Dir.2 Vit. Moy. Raf.3
23:00 4.8 -0.6 1.9 O 35.2 -- 66.7 81 700(-0.7/3h) -- -- -- --
22:00 5.5 0.2 1.0 O 37.0 -- 83.3 73 700(-0.3/3h) -- -- -- --
21:00 5.3 -0.1 0.9 O 37.0 -- 87.0 73 700(0.0/3h) -- -- -- --
20:00 5.9 -0 0.1 O 48.2 -- 87.0 66 700(0.3/3h) -- -- -- --
19:00 6.0 0.4 0.3 O 44.4 -- 77.8 67 700(0.2/3h) -- -- -- --
18:00 5.8 1 1.5 O 31.5 -- 64.8 74 700(-0.1/3h) -- -- -- --
17:00 5.9 0.7 1.4 O 37.0 -- 64.8 73 700(-0.3/3h) -- -- -- --
16:00 6.4 3 1.6 O 18.5 -- 38.9 71 700(-0.2/3h) -- -- -- --
15:00 7.5 5.4 2.0 OSO 11.1 -- 38.9 68 700(-0.2/3h) -- -- -- --
14:00 7.8 4.8 2.2 OSO 18.5 -- 37.0 68 700(-0.5/3h) -- -- -- --
13:00 7.0 3.5 1.8 OSO 20.4 -- 37.0 69 700(-0.7/3h) -- -- -- --
12:00 6.1 3.1 1.4 OSO 14.8 -- 29.6 72 700(-0.3/3h) -- -- -- --
11:00 5.6 2.5 1.2 O 14.8 -- 25.9 73 700(0.5/3h) -- -- -- --
10:00 5.5 3.4 -0.8 SSO 9.3 -- 18.5 64 700(0.8/3h) -- -- -- --
09:00 4.9 4.9 2.2 ONO 3.7 -- 24.1 83 700(0.9/3h) -- -- -- --
08:00 3.5 -0.1 0.1 O 14.8 -- 24.1 78 700(1.0/3h) -- -- -- --
07:00 4.2 1.1 -3.3 O 13.0 -- 24.1 58 700(0.9/3h) -- -- -- --
06:00 4.3 2 -4.3 SO 9.3 -- 46.3 53 700(0.8/3h) -- -- -- --
05:00 4.2 -0.8 -6.2 NNO 27.8 -- 46.3 47 700(0.2/3h) -- -- -- --
04:00 3.7 -1.2 -15.7 N 25.9 -- 35.2 23 700(0.1/3h) -- -- -- --
03:00 3.8 0 -15.9 NNO 16.7 -- 29.6 22 700(0.0/3h) -- -- -- --
02:00 2.4 -2 -16.6 O 18.5 -- 29.6 23 700(0.5/3h) -- -- -- --
01:00 1.8 -1.8 -16.4 NNO 13.0 -- 22.2 24 700(0.4/3h) -- -- -- --
00:00 1.2 -2.6 -15.2 NNO 13.0 -- 33.3 28 700(0.5/3h) -- -- -- --

1 Coordinated Universal Time. Actuellement il est 00:00 locale et 22:00 UTC.

2 Le vent souffle depuis la direction indiquée vers la direction oposée.

3 Les rafales max. sont disponible 40 min après l'heure du relevé.

4 Pour les stations d'altitude (plus de 600m) le géopotentiel du niveau le plus proche de la pression obligatoire est indiqué.

5 Les stations disposant d'un diffuseur peuvent indiquer "trace". Cela signifie que des précipitations ont touchés le sol mais que la quantité est inférieure à 0.1 mm.

Copyright

Les données affichées sur cette page sont la propriété exclusive de Météo Suisse.

Récapitulatif de la journée
Température [°C] Vent [km/h] Ensoleillement4 [h] Precipitations totale5 [mm] Pression [Hpa]
Min1 Max.2 Moy.3 Max. Min Max.
-2.0 7.8 0 87.0 7 h 30 min 0 700.0 700.0

1 Température minimale relevée entre 18:00 UTC la veille et 18:00 UTC le jour donné.

2 Température maximale relevée entre 06:00 UTC le jour donné et 06:00 UTC le lendemain.

3 Vent moyen de la journée basé sur les relevés horaires.

4 Ensoleillement en heures relevé entre 06:00 UTC la veille et 06:00 UTC le jour donné.

5 Précipitations totales tombées entre 06:00 UTC la jour donné et 06:00 UTC le lendemain.

Graphiques horaires